sensor_id;sensor_type;location;lat;lon;timestamp;P1;durP1;ratioP1;P2;durP2;ratioP2
31378;SDS011;61664;48.112;11.662;2023-09-07T00:00:26;1.75;;;1.65;;
31378;SDS011;61664;48.112;11.662;2023-09-07T00:02:53;1.92;;;1.77;;
31378;SDS011;61664;48.112;11.662;2023-09-07T00:05:20;3.28;;;2.50;;
31378;SDS011;61664;48.112;11.662;2023-09-07T00:07:47;2.08;;;1.88;;
31378;SDS011;61664;48.112;11.662;2023-09-07T00:10:15;2.15;;;2.05;;
31378;SDS011;61664;48.112;11.662;2023-09-07T00:12:43;1.58;;;1.48;;
31378;SDS011;61664;48.112;11.662;2023-09-07T00:15:10;2.63;;;1.90;;
31378;SDS011;61664;48.112;11.662;2023-09-07T00:17:37;2.35;;;2.15;;
31378;SDS011;61664;48.112;11.662;2023-09-07T00:20:04;2.47;;;2.15;;
31378;SDS011;61664;48.112;11.662;2023-09-07T00:22:40;2.33;;;2.03;;
31378;SDS011;61664;48.112;11.662;2023-09-07T00:25:07;2.15;;;2.03;;
31378;SDS011;61664;48.112;11.662;2023-09-07T00:27:35;2.38;;;2.17;;
31378;SDS011;61664;48.112;11.662;2023-09-07T00:30:02;2.28;;;2.13;;
31378;SDS011;61664;48.112;11.662;2023-09-07T00:32:38;1.95;;;1.85;;
31378;SDS011;61664;48.112;11.662;2023-09-07T00:35:05;2.42;;;2.22;;
31378;SDS011;61664;48.112;11.662;2023-09-07T00:37:33;2.42;;;1.55;;
31378;SDS011;61664;48.112;11.662;2023-09-07T00:40:00;1.95;;;1.83;;
31378;SDS011;61664;48.112;11.662;2023-09-07T00:42:27;1.92;;;1.83;;
31378;SDS011;61664;48.112;11.662;2023-09-07T00:44:54;4.25;;;1.80;;
31378;SDS011;61664;48.112;11.662;2023-09-07T00:47:21;1.63;;;1.52;;
31378;SDS011;61664;48.112;11.662;2023-09-07T00:49:49;2.10;;;2.00;;
31378;SDS011;61664;48.112;11.662;2023-09-07T00:52:16;2.28;;;2.10;;
31378;SDS011;61664;48.112;11.662;2023-09-07T00:54:45;2.58;;;1.70;;
31378;SDS011;61664;48.112;11.662;2023-09-07T00:57:12;2.83;;;2.63;;
31378;SDS011;61664;48.112;11.662;2023-09-07T00:59:39;3.75;;;1.75;;
31378;SDS011;61664;48.112;11.662;2023-09-07T01:02:06;3.92;;;1.90;;
31378;SDS011;61664;48.112;11.662;2023-09-07T01:04:33;2.05;;;1.85;;
31378;SDS011;61664;48.112;11.662;2023-09-07T01:07:07;1.85;;;1.70;;
31378;SDS011;61664;48.112;11.662;2023-09-07T01:09:44;1.88;;;1.77;;
31378;SDS011;61664;48.112;11.662;2023-09-07T01:12:17;1.95;;;1.85;;
31378;SDS011;61664;48.112;11.662;2023-09-07T01:14:44;2.00;;;1.90;;
31378;SDS011;61664;48.112;11.662;2023-09-07T01:17:12;2.20;;;2.10;;
31378;SDS011;61664;48.112;11.662;2023-09-07T01:19:40;1.90;;;1.80;;
31378;SDS011;61664;48.112;11.662;2023-09-07T01:22:07;1.92;;;1.83;;
31378;SDS011;61664;48.112;11.662;2023-09-07T01:24:36;2.20;;;1.98;;
31378;SDS011;61664;48.112;11.662;2023-09-07T01:27:05;1.80;;;1.70;;
31378;SDS011;61664;48.112;11.662;2023-09-07T01:29:32;1.92;;;1.60;;
31378;SDS011;61664;48.112;11.662;2023-09-07T01:32:00;2.08;;;1.98;;
31378;SDS011;61664;48.112;11.662;2023-09-07T01:34:27;2.08;;;1.52;;
31378;SDS011;61664;48.112;11.662;2023-09-07T01:36:54;2.42;;;1.52;;
31378;SDS011;61664;48.112;11.662;2023-09-07T01:39:22;2.40;;;1.95;;
31378;SDS011;61664;48.112;11.662;2023-09-07T01:41:49;2.08;;;1.85;;
31378;SDS011;61664;48.112;11.662;2023-09-07T01:44:16;1.83;;;1.73;;
31378;SDS011;61664;48.112;11.662;2023-09-07T01:46:42;1.70;;;1.60;;
31378;SDS011;61664;48.112;11.662;2023-09-07T01:49:10;2.97;;;1.73;;
31378;SDS011;61664;48.112;11.662;2023-09-07T01:51:37;2.28;;;2.08;;
31378;SDS011;61664;48.112;11.662;2023-09-07T01:54:04;2.17;;;2.08;;
31378;SDS011;61664;48.112;11.662;2023-09-07T01:56:31;3.45;;;2.00;;
31378;SDS011;61664;48.112;11.662;2023-09-07T01:58:58;1.95;;;1.85;;
31378;SDS011;61664;48.112;11.662;2023-09-07T02:01:26;2.53;;;2.13;;
31378;SDS011;61664;48.112;11.662;2023-09-07T02:03:56;4.05;;;1.65;;
31378;SDS011;61664;48.112;11.662;2023-09-07T02:06:23;2.40;;;2.28;;
31378;SDS011;61664;48.112;11.662;2023-09-07T02:08:50;10.70;;;2.47;;
31378;SDS011;61664;48.112;11.662;2023-09-07T02:11:17;3.30;;;2.35;;
31378;SDS011;61664;48.112;11.662;2023-09-07T02:13:46;2.03;;;1.92;;
31378;SDS011;61664;48.112;11.662;2023-09-07T02:16:14;1.90;;;1.80;;
31378;SDS011;61664;48.112;11.662;2023-09-07T02:18:41;2.10;;;1.92;;
31378;SDS011;61664;48.112;11.662;2023-09-07T02:21:12;1.70;;;1.60;;
31378;SDS011;61664;48.112;11.662;2023-09-07T02:23:39;2.03;;;1.60;;
31378;SDS011;61664;48.112;11.662;2023-09-07T02:26:07;2.42;;;1.88;;
31378;SDS011;61664;48.112;11.662;2023-09-07T02:28:34;1.85;;;1.75;;
31378;SDS011;61664;48.112;11.662;2023-09-07T02:31:04;2.90;;;1.67;;
31378;SDS011;61664;48.112;11.662;2023-09-07T02:33:32;1.77;;;1.67;;
31378;SDS011;61664;48.112;11.662;2023-09-07T02:36:00;1.98;;;1.88;;
31378;SDS011;61664;48.112;11.662;2023-09-07T02:38:27;1.90;;;1.80;;
31378;SDS011;61664;48.112;11.662;2023-09-07T02:40:55;2.08;;;1.95;;
31378;SDS011;61664;48.112;11.662;2023-09-07T02:43:24;2.65;;;2.45;;
31378;SDS011;61664;48.112;11.662;2023-09-07T02:45:51;2.33;;;2.13;;
31378;SDS011;61664;48.112;11.662;2023-09-07T02:48:18;1.92;;;1.83;;
31378;SDS011;61664;48.112;11.662;2023-09-07T02:50:45;3.00;;;2.60;;
31378;SDS011;61664;48.112;11.662;2023-09-07T02:53:15;2.08;;;1.98;;
31378;SDS011;61664;48.112;11.662;2023-09-07T02:55:42;2.05;;;1.95;;
31378;SDS011;61664;48.112;11.662;2023-09-07T02:58:09;1.92;;;1.77;;
31378;SDS011;61664;48.112;11.662;2023-09-07T03:00:40;2.20;;;2.00;;
31378;SDS011;61664;48.112;11.662;2023-09-07T03:03:11;2.20;;;2.10;;
31378;SDS011;61664;48.112;11.662;2023-09-07T03:05:40;2.25;;;1.85;;
31378;SDS011;61664;48.112;11.662;2023-09-07T03:08:08;1.90;;;1.80;;
31378;SDS011;61664;48.112;11.662;2023-09-07T03:10:36;2.30;;;2.10;;
31378;SDS011;61664;48.112;11.662;2023-09-07T03:13:07;1.55;;;1.48;;
31378;SDS011;61664;48.112;11.662;2023-09-07T03:15:34;2.50;;;1.80;;
31378;SDS011;61664;48.112;11.662;2023-09-07T03:18:02;1.85;;;1.75;;
31378;SDS011;61664;48.112;11.662;2023-09-07T03:20:29;2.13;;;2.03;;
31378;SDS011;61664;48.112;11.662;2023-09-07T03:25:27;2.10;;;1.77;;
31378;SDS011;61664;48.112;11.662;2023-09-07T03:27:55;3.25;;;2.15;;
31378;SDS011;61664;48.112;11.662;2023-09-07T03:30:22;2.05;;;1.95;;
31378;SDS011;61664;48.112;11.662;2023-09-07T03:32:48;1.92;;;1.83;;
31378;SDS011;61664;48.112;11.662;2023-09-07T03:35:15;2.20;;;2.03;;
31378;SDS011;61664;48.112;11.662;2023-09-07T03:37:42;2.28;;;2.08;;
31378;SDS011;61664;48.112;11.662;2023-09-07T03:40:09;2.65;;;1.85;;
31378;SDS011;61664;48.112;11.662;2023-09-07T03:42:36;2.22;;;2.13;;
31378;SDS011;61664;48.112;11.662;2023-09-07T03:45:03;2.30;;;2.10;;
31378;SDS011;61664;48.112;11.662;2023-09-07T03:47:31;1.77;;;1.67;;
31378;SDS011;61664;48.112;11.662;2023-09-07T03:49:59;1.90;;;1.80;;
31378;SDS011;61664;48.112;11.662;2023-09-07T03:52:27;2.08;;;1.98;;
31378;SDS011;61664;48.112;11.662;2023-09-07T03:54:54;2.58;;;2.42;;
31378;SDS011;61664;48.112;11.662;2023-09-07T03:57:23;3.63;;;1.85;;
31378;SDS011;61664;48.112;11.662;2023-09-07T03:59:51;2.58;;;2.38;;
31378;SDS011;61664;48.112;11.662;2023-09-07T04:02:19;6.55;;;2.55;;
31378;SDS011;61664;48.112;11.662;2023-09-07T04:04:53;2.40;;;2.20;;
31378;SDS011;61664;48.112;11.662;2023-09-07T04:07:23;2.65;;;2.10;;
31378;SDS011;61664;48.112;11.662;2023-09-07T04:09:50;2.60;;;2.40;;
31378;SDS011;61664;48.112;11.662;2023-09-07T04:12:17;2.65;;;2.45;;
31378;SDS011;61664;48.112;11.662;2023-09-07T04:14:44;2.50;;;2.30;;
31378;SDS011;61664;48.112;11.662;2023-09-07T04:17:11;2.85;;;2.40;;
31378;SDS011;61664;48.112;11.662;2023-09-07T04:19:38;2.33;;;2.13;;
31378;SDS011;61664;48.112;11.662;2023-09-07T04:22:05;2.28;;;2.05;;
31378;SDS011;61664;48.112;11.662;2023-09-07T04:24:32;2.95;;;2.00;;
31378;SDS011;61664;48.112;11.662;2023-09-07T04:27:00;2.70;;;2.50;;
31378;SDS011;61664;48.112;11.662;2023-09-07T04:29:28;1.83;;;1.73;;
31378;SDS011;61664;48.112;11.662;2023-09-07T04:31:55;2.05;;;1.95;;
31378;SDS011;61664;48.112;11.662;2023-09-07T04:34:22;3.08;;;2.35;;
31378;SDS011;61664;48.112;11.662;2023-09-07T04:36:50;2.15;;;2.05;;
31378;SDS011;61664;48.112;11.662;2023-09-07T04:39:17;2.38;;;2.17;;
31378;SDS011;61664;48.112;11.662;2023-09-07T04:41:44;2.08;;;1.98;;
31378;SDS011;61664;48.112;11.662;2023-09-07T04:44:11;3.38;;;2.10;;
31378;SDS011;61664;48.112;11.662;2023-09-07T04:46:38;1.92;;;1.83;;
31378;SDS011;61664;48.112;11.662;2023-09-07T04:49:06;2.40;;;2.22;;
31378;SDS011;61664;48.112;11.662;2023-09-07T04:51:33;2.20;;;2.10;;
31378;SDS011;61664;48.112;11.662;2023-09-07T04:54:00;3.67;;;2.15;;
31378;SDS011;61664;48.112;11.662;2023-09-07T04:56:27;2.22;;;2.13;;
31378;SDS011;61664;48.112;11.662;2023-09-07T04:58:55;2.28;;;2.17;;
31378;SDS011;61664;48.112;11.662;2023-09-07T05:01:22;2.75;;;2.20;;
31378;SDS011;61664;48.112;11.662;2023-09-07T05:03:50;2.72;;;2.53;;
31378;SDS011;61664;48.112;11.662;2023-09-07T05:06:18;3.05;;;2.30;;
31378;SDS011;61664;48.112;11.662;2023-09-07T05:08:45;2.97;;;2.00;;
31378;SDS011;61664;48.112;11.662;2023-09-07T05:11:12;2.80;;;2.60;;
31378;SDS011;61664;48.112;11.662;2023-09-07T05:13:39;2.95;;;2.75;;
31378;SDS011;61664;48.112;11.662;2023-09-07T05:16:06;2.28;;;2.08;;
31378;SDS011;61664;48.112;11.662;2023-09-07T05:18:33;2.70;;;2.08;;
31378;SDS011;61664;48.112;11.662;2023-09-07T05:21:00;1.85;;;1.63;;
31378;SDS011;61664;48.112;11.662;2023-09-07T05:23:27;2.42;;;2.33;;
31378;SDS011;61664;48.112;11.662;2023-09-07T05:25:54;2.47;;;2.28;;
31378;SDS011;61664;48.112;11.662;2023-09-07T05:28:22;3.38;;;2.33;;
31378;SDS011;61664;48.112;11.662;2023-09-07T05:30:49;3.15;;;2.83;;
31378;SDS011;61664;48.112;11.662;2023-09-07T05:33:17;2.13;;;2.00;;
31378;SDS011;61664;48.112;11.662;2023-09-07T05:35:45;2.78;;;2.58;;
31378;SDS011;61664;48.112;11.662;2023-09-07T05:38:12;3.78;;;2.90;;
31378;SDS011;61664;48.112;11.662;2023-09-07T05:40:40;3.10;;;2.90;;
31378;SDS011;61664;48.112;11.662;2023-09-07T05:43:10;3.72;;;2.83;;
31378;SDS011;61664;48.112;11.662;2023-09-07T05:45:39;3.05;;;2.80;;
31378;SDS011;61664;48.112;11.662;2023-09-07T05:48:07;3.03;;;2.72;;
31378;SDS011;61664;48.112;11.662;2023-09-07T05:50:36;2.97;;;2.35;;
31378;SDS011;61664;48.112;11.662;2023-09-07T05:53:04;4.65;;;2.85;;
31378;SDS011;61664;48.112;11.662;2023-09-07T05:55:31;3.05;;;2.75;;
31378;SDS011;61664;48.112;11.662;2023-09-07T05:57:59;2.95;;;2.75;;
31378;SDS011;61664;48.112;11.662;2023-09-07T06:00:30;3.03;;;2.65;;
31378;SDS011;61664;48.112;11.662;2023-09-07T06:02:57;6.25;;;2.83;;
31378;SDS011;61664;48.112;11.662;2023-09-07T06:05:25;5.65;;;4.53;;
31378;SDS011;61664;48.112;11.662;2023-09-07T06:07:52;3.20;;;2.92;;
31378;SDS011;61664;48.112;11.662;2023-09-07T06:10:19;4.22;;;2.78;;
31378;SDS011;61664;48.112;11.662;2023-09-07T06:12:46;6.40;;;2.85;;
31378;SDS011;61664;48.112;11.662;2023-09-07T06:15:13;3.22;;;2.92;;
31378;SDS011;61664;48.112;11.662;2023-09-07T06:17:40;4.32;;;3.13;;
31378;SDS011;61664;48.112;11.662;2023-09-07T06:20:07;3.17;;;2.95;;
31378;SDS011;61664;48.112;11.662;2023-09-07T06:22:35;3.33;;;2.90;;
31378;SDS011;61664;48.112;11.662;2023-09-07T06:25:04;3.78;;;3.47;;
31378;SDS011;61664;48.112;11.662;2023-09-07T06:27:32;3.83;;;3.30;;
31378;SDS011;61664;48.112;11.662;2023-09-07T06:29:58;4.05;;;3.65;;
31378;SDS011;61664;48.112;11.662;2023-09-07T06:32:25;3.58;;;3.38;;
31378;SDS011;61664;48.112;11.662;2023-09-07T06:34:53;4.22;;;3.92;;
31378;SDS011;61664;48.112;11.662;2023-09-07T06:37:19;3.40;;;3.13;;
31378;SDS011;61664;48.112;11.662;2023-09-07T06:39:46;3.40;;;3.10;;
31378;SDS011;61664;48.112;11.662;2023-09-07T06:42:13;8.50;;;4.53;;
31378;SDS011;61664;48.112;11.662;2023-09-07T06:44:42;4.45;;;4.15;;
31378;SDS011;61664;48.112;11.662;2023-09-07T06:47:09;4.03;;;3.72;;
31378;SDS011;61664;48.112;11.662;2023-09-07T06:49:37;4.03;;;3.72;;
31378;SDS011;61664;48.112;11.662;2023-09-07T06:52:04;4.63;;;4.10;;
31378;SDS011;61664;48.112;11.662;2023-09-07T06:54:31;4.80;;;3.78;;
31378;SDS011;61664;48.112;11.662;2023-09-07T06:56:59;4.47;;;3.85;;
31378;SDS011;61664;48.112;11.662;2023-09-07T06:59:26;4.30;;;3.78;;
31378;SDS011;61664;48.112;11.662;2023-09-07T07:01:53;3.90;;;3.50;;
31378;SDS011;61664;48.112;11.662;2023-09-07T07:04:20;5.75;;;4.07;;
31378;SDS011;61664;48.112;11.662;2023-09-07T07:06:47;3.40;;;3.20;;
31378;SDS011;61664;48.112;11.662;2023-09-07T07:09:14;3.33;;;3.13;;
31378;SDS011;61664;48.112;11.662;2023-09-07T07:11:41;3.42;;;3.13;;
31378;SDS011;61664;48.112;11.662;2023-09-07T07:14:09;3.78;;;3.58;;
31378;SDS011;61664;48.112;11.662;2023-09-07T07:16:37;3.80;;;3.60;;
31378;SDS011;61664;48.112;11.662;2023-09-07T07:19:04;4.25;;;3.85;;
31378;SDS011;61664;48.112;11.662;2023-09-07T07:21:31;4.00;;;3.40;;
31378;SDS011;61664;48.112;11.662;2023-09-07T07:23:58;3.58;;;3.28;;
31378;SDS011;61664;48.112;11.662;2023-09-07T07:26:25;3.15;;;2.95;;
31378;SDS011;61664;48.112;11.662;2023-09-07T07:28:52;3.45;;;3.25;;
31378;SDS011;61664;48.112;11.662;2023-09-07T07:31:19;5.80;;;3.88;;
31378;SDS011;61664;48.112;11.662;2023-09-07T07:33:46;3.75;;;3.53;;
31378;SDS011;61664;48.112;11.662;2023-09-07T07:36:14;3.70;;;3.40;;
31378;SDS011;61664;48.112;11.662;2023-09-07T07:38:42;3.83;;;3.53;;
31378;SDS011;61664;48.112;11.662;2023-09-07T07:41:09;3.10;;;2.90;;
31378;SDS011;61664;48.112;11.662;2023-09-07T07:43:35;3.78;;;3.25;;
31378;SDS011;61664;48.112;11.662;2023-09-07T07:46:03;3.38;;;3.08;;
31378;SDS011;61664;48.112;11.662;2023-09-07T07:48:30;3.17;;;2.97;;
31378;SDS011;61664;48.112;11.662;2023-09-07T07:50:57;3.72;;;3.42;;
31378;SDS011;61664;48.112;11.662;2023-09-07T07:53:29;3.15;;;2.95;;
31378;SDS011;61664;48.112;11.662;2023-09-07T07:55:57;2.90;;;2.70;;
31378;SDS011;61664;48.112;11.662;2023-09-07T07:58:24;3.28;;;3.08;;
31378;SDS011;61664;48.112;11.662;2023-09-07T08:00:51;3.80;;;3.60;;
31378;SDS011;61664;48.112;11.662;2023-09-07T08:03:18;3.20;;;2.92;;
31378;SDS011;61664;48.112;11.662;2023-09-07T08:05:46;3.22;;;2.72;;
31378;SDS011;61664;48.112;11.662;2023-09-07T08:08:14;2.97;;;2.78;;
31378;SDS011;61664;48.112;11.662;2023-09-07T08:10:41;2.78;;;2.58;;
31378;SDS011;61664;48.112;11.662;2023-09-07T08:13:08;2.38;;;2.28;;
31378;SDS011;61664;48.112;11.662;2023-09-07T08:15:35;2.55;;;2.40;;
31378;SDS011;61664;48.112;11.662;2023-09-07T08:18:02;3.35;;;2.78;;
31378;SDS011;61664;48.112;11.662;2023-09-07T08:20:31;2.72;;;2.53;;
31378;SDS011;61664;48.112;11.662;2023-09-07T08:22:59;2.63;;;2.53;;
31378;SDS011;61664;48.112;11.662;2023-09-07T08:25:31;2.47;;;2.38;;
31378;SDS011;61664;48.112;11.662;2023-09-07T08:27:58;2.58;;;2.40;;
31378;SDS011;61664;48.112;11.662;2023-09-07T08:30:26;2.22;;;2.13;;
31378;SDS011;61664;48.112;11.662;2023-09-07T08:32:53;2.30;;;2.10;;
31378;SDS011;61664;48.112;11.662;2023-09-07T08:35:20;2.50;;;2.38;;
31378;SDS011;61664;48.112;11.662;2023-09-07T08:37:47;2.60;;;2.50;;
31378;SDS011;61664;48.112;11.662;2023-09-07T08:40:14;2.70;;;2.50;;
31378;SDS011;61664;48.112;11.662;2023-09-07T08:42:43;2.40;;;2.30;;
31378;SDS011;61664;48.112;11.662;2023-09-07T08:45:10;2.17;;;1.95;;
31378;SDS011;61664;48.112;11.662;2023-09-07T08:47:47;2.28;;;2.17;;
31378;SDS011;61664;48.112;11.662;2023-09-07T08:50:16;2.30;;;2.10;;
31378;SDS011;61664;48.112;11.662;2023-09-07T08:52:45;3.40;;;2.65;;
31378;SDS011;61664;48.112;11.662;2023-09-07T08:55:14;2.20;;;2.10;;
31378;SDS011;61664;48.112;11.662;2023-09-07T08:57:41;2.30;;;2.20;;
31378;SDS011;61664;48.112;11.662;2023-09-07T09:00:08;2.20;;;2.10;;
31378;SDS011;61664;48.112;11.662;2023-09-07T09:02:42;2.50;;;2.30;;
31378;SDS011;61664;48.112;11.662;2023-09-07T09:05:22;3.35;;;2.33;;
31378;SDS011;61664;48.112;11.662;2023-09-07T09:08:00;2.93;;;2.60;;
31378;SDS011;61664;48.112;11.662;2023-09-07T09:10:30;2.40;;;2.30;;
31378;SDS011;61664;48.112;11.662;2023-09-07T09:12:58;2.45;;;2.35;;
31378;SDS011;61664;48.112;11.662;2023-09-07T09:15:27;2.47;;;2.28;;
31378;SDS011;61664;48.112;11.662;2023-09-07T09:17:54;1.92;;;1.83;;
31378;SDS011;61664;48.112;11.662;2023-09-07T09:22:51;2.45;;;2.35;;
31378;SDS011;61664;48.112;11.662;2023-09-07T09:27:48;2.22;;;2.03;;
31378;SDS011;61664;48.112;11.662;2023-09-07T09:30:15;2.13;;;2.03;;
31378;SDS011;61664;48.112;11.662;2023-09-07T09:32:43;2.30;;;2.10;;
31378;SDS011;61664;48.112;11.662;2023-09-07T09:35:10;1.98;;;1.88;;
31378;SDS011;61664;48.112;11.662;2023-09-07T09:37:44;2.00;;;1.90;;
31378;SDS011;61664;48.112;11.662;2023-09-07T09:40:15;2.15;;;2.00;;
31378;SDS011;61664;48.112;11.662;2023-09-07T09:45:12;1.90;;;1.80;;
31378;SDS011;61664;48.112;11.662;2023-09-07T09:47:42;2.28;;;2.17;;
31378;SDS011;61664;48.112;11.662;2023-09-07T09:50:09;2.13;;;1.92;;
31378;SDS011;61664;48.112;11.662;2023-09-07T09:52:38;2.10;;;2.00;;
31378;SDS011;61664;48.112;11.662;2023-09-07T09:55:06;2.65;;;1.95;;
31378;SDS011;61664;48.112;11.662;2023-09-07T09:57:35;2.00;;;1.90;;
31378;SDS011;61664;48.112;11.662;2023-09-07T10:00:05;3.10;;;2.40;;
31378;SDS011;61664;48.112;11.662;2023-09-07T10:02:47;2.13;;;2.03;;
31378;SDS011;61664;48.112;11.662;2023-09-07T10:05:20;2.05;;;1.95;;
31378;SDS011;61664;48.112;11.662;2023-09-07T10:07:52;1.90;;;1.80;;
31378;SDS011;61664;48.112;11.662;2023-09-07T10:10:19;2.08;;;1.90;;
31378;SDS011;61664;48.112;11.662;2023-09-07T10:12:53;1.95;;;1.85;;
31378;SDS011;61664;48.112;11.662;2023-09-07T10:15:20;2.13;;;2.03;;
31378;SDS011;61664;48.112;11.662;2023-09-07T10:18:11;2.08;;;1.98;;
31378;SDS011;61664;48.112;11.662;2023-09-07T10:20:50;2.30;;;2.20;;
31378;SDS011;61664;48.112;11.662;2023-09-07T10:23:37;2.08;;;1.98;;
31378;SDS011;61664;48.112;11.662;2023-09-07T10:26:12;2.03;;;1.92;;
31378;SDS011;61664;48.112;11.662;2023-09-07T10:28:45;2.08;;;1.98;;
31378;SDS011;61664;48.112;11.662;2023-09-07T10:33:46;1.55;;;1.45;;
31378;SDS011;61664;48.112;11.662;2023-09-07T10:36:23;2.03;;;1.92;;
31378;SDS011;61664;48.112;11.662;2023-09-07T10:38:54;2.80;;;2.05;;
31378;SDS011;61664;48.112;11.662;2023-09-07T10:41:22;1.83;;;1.70;;
31378;SDS011;61664;48.112;11.662;2023-09-07T10:43:50;2.33;;;2.22;;
31378;SDS011;61664;48.112;11.662;2023-09-07T10:46:21;2.13;;;2.03;;
31378;SDS011;61664;48.112;11.662;2023-09-07T10:48:53;1.73;;;1.63;;
31378;SDS011;61664;48.112;11.662;2023-09-07T10:53:48;1.70;;;1.60;;
31378;SDS011;61664;48.112;11.662;2023-09-07T10:56:15;2.25;;;2.13;;
31378;SDS011;61664;48.112;11.662;2023-09-07T10:58:42;3.17;;;2.38;;
31378;SDS011;61664;48.112;11.662;2023-09-07T11:01:10;2.30;;;2.20;;
31378;SDS011;61664;48.112;11.662;2023-09-07T11:03:39;2.03;;;1.93;;
31378;SDS011;61664;48.112;11.662;2023-09-07T11:06:16;2.45;;;2.25;;
31378;SDS011;61664;48.112;11.662;2023-09-07T11:08:50;2.55;;;2.35;;
31378;SDS011;61664;48.112;11.662;2023-09-07T11:11:17;2.20;;;2.10;;
31378;SDS011;61664;48.112;11.662;2023-09-07T11:13:44;2.03;;;1.92;;
31378;SDS011;61664;48.112;11.662;2023-09-07T11:16:11;3.25;;;2.20;;
31378;SDS011;61664;48.112;11.662;2023-09-07T11:18:39;2.40;;;2.30;;
31378;SDS011;61664;48.112;11.662;2023-09-07T11:21:07;2.08;;;1.98;;
31378;SDS011;61664;48.112;11.662;2023-09-07T11:23:34;2.17;;;2.08;;
31378;SDS011;61664;48.112;11.662;2023-09-07T11:26:04;2.03;;;1.92;;
31378;SDS011;61664;48.112;11.662;2023-09-07T11:28:32;2.40;;;2.30;;
31378;SDS011;61664;48.112;11.662;2023-09-07T11:30:59;2.53;;;2.42;;
31378;SDS011;61664;48.112;11.662;2023-09-07T11:33:30;2.55;;;2.35;;
31378;SDS011;61664;48.112;11.662;2023-09-07T11:36:00;2.42;;;2.30;;
31378;SDS011;61664;48.112;11.662;2023-09-07T11:38:28;2.45;;;2.25;;
31378;SDS011;61664;48.112;11.662;2023-09-07T11:41:02;2.80;;;2.60;;
31378;SDS011;61664;48.112;11.662;2023-09-07T11:43:29;2.70;;;2.50;;
31378;SDS011;61664;48.112;11.662;2023-09-07T11:45:57;2.42;;;2.30;;
31378;SDS011;61664;48.112;11.662;2023-09-07T11:48:24;2.67;;;2.47;;
31378;SDS011;61664;48.112;11.662;2023-09-07T11:50:51;2.28;;;2.17;;
31378;SDS011;61664;48.112;11.662;2023-09-07T11:53:18;4.00;;;2.55;;
31378;SDS011;61664;48.112;11.662;2023-09-07T11:55:45;2.40;;;2.30;;
31378;SDS011;61664;48.112;11.662;2023-09-07T11:58:12;2.78;;;2.58;;
31378;SDS011;61664;48.112;11.662;2023-09-07T12:00:38;2.47;;;2.38;;
31378;SDS011;61664;48.112;11.662;2023-09-07T12:03:07;2.33;;;2.22;;
31378;SDS011;61664;48.112;11.662;2023-09-07T12:05:35;2.55;;;2.42;;
31378;SDS011;61664;48.112;11.662;2023-09-07T12:08:03;3.20;;;2.35;;
31378;SDS011;61664;48.112;11.662;2023-09-07T12:10:32;2.70;;;2.50;;
31378;SDS011;61664;48.112;11.662;2023-09-07T12:12:59;2.78;;;2.58;;
31378;SDS011;61664;48.112;11.662;2023-09-07T12:15:26;2.40;;;2.20;;
31378;SDS011;61664;48.112;11.662;2023-09-07T12:17:52;2.50;;;2.40;;
31378;SDS011;61664;48.112;11.662;2023-09-07T12:20:21;2.28;;;2.17;;
31378;SDS011;61664;48.112;11.662;2023-09-07T12:22:48;2.10;;;2.00;;
31378;SDS011;61664;48.112;11.662;2023-09-07T12:25:15;2.72;;;2.58;;
31378;SDS011;61664;48.112;11.662;2023-09-07T12:27:45;2.30;;;2.20;;
31378;SDS011;61664;48.112;11.662;2023-09-07T12:30:17;2.83;;;2.63;;
31378;SDS011;61664;48.112;11.662;2023-09-07T12:32:47;2.70;;;2.50;;
31378;SDS011;61664;48.112;11.662;2023-09-07T12:35:14;2.38;;;2.28;;
31378;SDS011;61664;48.112;11.662;2023-09-07T12:37:42;2.20;;;2.10;;
31378;SDS011;61664;48.112;11.662;2023-09-07T12:40:09;2.22;;;2.13;;
31378;SDS011;61664;48.112;11.662;2023-09-07T12:42:39;2.50;;;2.30;;
31378;SDS011;61664;48.112;11.662;2023-09-07T12:45:08;2.42;;;2.28;;
31378;SDS011;61664;48.112;11.662;2023-09-07T12:47:37;2.25;;;2.15;;
31378;SDS011;61664;48.112;11.662;2023-09-07T12:50:05;2.83;;;2.63;;
31378;SDS011;61664;48.112;11.662;2023-09-07T12:52:33;2.40;;;2.20;;
31378;SDS011;61664;48.112;11.662;2023-09-07T12:55:06;2.30;;;2.20;;
31378;SDS011;61664;48.112;11.662;2023-09-07T12:57:34;2.22;;;2.13;;
31378;SDS011;61664;48.112;11.662;2023-09-07T13:00:03;1.90;;;1.80;;
31378;SDS011;61664;48.112;11.662;2023-09-07T13:02:32;2.53;;;2.33;;
31378;SDS011;61664;48.112;11.662;2023-09-07T13:04:59;2.05;;;1.95;;
31378;SDS011;61664;48.112;11.662;2023-09-07T13:07:26;2.15;;;2.05;;
31378;SDS011;61664;48.112;11.662;2023-09-07T13:09:53;2.33;;;2.22;;
31378;SDS011;61664;48.112;11.662;2023-09-07T13:12:21;2.42;;;2.22;;
31378;SDS011;61664;48.112;11.662;2023-09-07T13:14:48;2.53;;;2.15;;
31378;SDS011;61664;48.112;11.662;2023-09-07T13:17:15;2.10;;;2.00;;
31378;SDS011;61664;48.112;11.662;2023-09-07T13:19:42;2.13;;;2.03;;
31378;SDS011;61664;48.112;11.662;2023-09-07T13:22:10;2.28;;;2.17;;
31378;SDS011;61664;48.112;11.662;2023-09-07T13:24:37;2.15;;;2.05;;
31378;SDS011;61664;48.112;11.662;2023-09-07T13:27:04;2.20;;;2.10;;
31378;SDS011;61664;48.112;11.662;2023-09-07T13:29:32;2.35;;;2.15;;
31378;SDS011;61664;48.112;11.662;2023-09-07T13:31:59;2.08;;;1.98;;
31378;SDS011;61664;48.112;11.662;2023-09-07T13:34:26;2.00;;;1.90;;
31378;SDS011;61664;48.112;11.662;2023-09-07T13:36:54;2.70;;;2.50;;
31378;SDS011;61664;48.112;11.662;2023-09-07T13:39:22;1.67;;;1.58;;
31378;SDS011;61664;48.112;11.662;2023-09-07T13:41:49;1.85;;;1.75;;
31378;SDS011;61664;48.112;11.662;2023-09-07T13:44:16;2.17;;;2.08;;
31378;SDS011;61664;48.112;11.662;2023-09-07T13:46:44;2.35;;;2.20;;
31378;SDS011;61664;48.112;11.662;2023-09-07T13:49:11;2.17;;;2.08;;
31378;SDS011;61664;48.112;11.662;2023-09-07T13:51:41;4.75;;;2.00;;
31378;SDS011;61664;48.112;11.662;2023-09-07T13:54:12;2.47;;;2.28;;
31378;SDS011;61664;48.112;11.662;2023-09-07T13:56:39;2.10;;;2.00;;
31378;SDS011;61664;48.112;11.662;2023-09-07T13:59:08;2.42;;;2.33;;
31378;SDS011;61664;48.112;11.662;2023-09-07T14:01:35;2.22;;;2.03;;
31378;SDS011;61664;48.112;11.662;2023-09-07T14:04:02;1.92;;;1.83;;
31378;SDS011;61664;48.112;11.662;2023-09-07T14:06:29;2.05;;;1.95;;
31378;SDS011;61664;48.112;11.662;2023-09-07T14:08:56;1.98;;;1.88;;
31378;SDS011;61664;48.112;11.662;2023-09-07T14:11:23;1.80;;;1.70;;
31378;SDS011;61664;48.112;11.662;2023-09-07T14:13:50;2.45;;;2.35;;
31378;SDS011;61664;48.112;11.662;2023-09-07T14:16:18;2.13;;;1.90;;
31378;SDS011;61664;48.112;11.662;2023-09-07T14:18:49;1.83;;;1.73;;
31378;SDS011;61664;48.112;11.662;2023-09-07T14:21:16;2.00;;;1.90;;
31378;SDS011;61664;48.112;11.662;2023-09-07T14:23:44;2.38;;;1.60;;
31378;SDS011;61664;48.112;11.662;2023-09-07T14:26:12;3.22;;;1.55;;
31378;SDS011;61664;48.112;11.662;2023-09-07T14:28:39;1.60;;;1.48;;
31378;SDS011;61664;48.112;11.662;2023-09-07T14:31:06;2.22;;;1.65;;
31378;SDS011;61664;48.112;11.662;2023-09-07T14:33:34;1.60;;;1.50;;
31378;SDS011;61664;48.112;11.662;2023-09-07T14:36:08;1.75;;;1.65;;
31378;SDS011;61664;48.112;11.662;2023-09-07T14:38:35;1.60;;;1.50;;
31378;SDS011;61664;48.112;11.662;2023-09-07T14:41:07;1.63;;;1.52;;
31378;SDS011;61664;48.112;11.662;2023-09-07T14:43:38;1.63;;;1.52;;
31378;SDS011;61664;48.112;11.662;2023-09-07T14:46:05;1.90;;;1.80;;
31378;SDS011;61664;48.112;11.662;2023-09-07T14:48:32;3.47;;;2.05;;
31378;SDS011;61664;48.112;11.662;2023-09-07T14:51:00;1.75;;;1.65;;
31378;SDS011;61664;48.112;11.662;2023-09-07T14:53:27;2.35;;;1.83;;